Terminal Aerodrome Forecast
Issued by NWS

Home | Current Version | Previous Version | Text Only | Print | Product List | Glossary On
Versions: 1 2 3 4 5 6 7 8 9 10 11 12 13 14 15 16 17 18 19 20 21 22 23 24 25 26 27 28
000
FTUS45 KVEF 261928 AAB
TAFLAS
TAF AMD
KLAS 261928Z 2619/2724 17010G18KT P6SM SKC
     FM262100 20011G20KT P6SM FEW150
     FM270000 24013G22KT P6SM FEW100 SCT200
     FM270500 24010KT P6SM SCT150
     FM271400 VRB06KT P6SM SCT150
     FM272000 10006KT P6SM SCT150=

USA.gov is the U.S. government's official web portal to all federal, state and local government web resources and services.